Time;durP1;ratioP1;P1;durP2;ratioP2;P2;SDS_P1;SDS_P2;PMS_P1;PMS_P2;Temp;Humidity;BMP_temperature;BMP_pressure;BME280_temperature;BME280_humidity;BME280_pressure;Samples;Min_cycle;Max_cycle;Signal;HPM_P1;HPM_P2
2023/10/13 00:02:01;;;;;;;;;;;;;;;6.61;82.84;99386.92;1790;312;184601;-58
2023/10/13 00:04:32;;;;;;;;;;;;;;;6.59;82.83;99396.52;1810;318;115716;-57
2023/10/13 00:07:02;;;;;;;;;;;;;;;6.57;83.10;99392.25;1780;303;185204;-57
2023/10/13 00:09:36;;;;;;;;;;;;;;;6.55;83.47;99395.10;1764;298;115635;-57
2023/10/13 00:12:14;;;;;;;;;;;;;;;6.51;83.29;99398.69;1751;304;115861;-57
2023/10/13 00:14:45;;;;;;;;;;;;;;;6.43;83.16;99400.35;1783;303;115737;-57
2023/10/13 00:17:20;;;;;;;;;;;;;;;6.36;83.25;99402.17;1779;302;115633;-57
2023/10/13 00:19:52;;;;;;;;;;;;;;;6.29;83.52;99404.84;1781;299;184456;-57
2023/10/13 00:22:22;;;;;;;;;;;;;;;6.27;83.87;99405.23;1796;302;116103;-57
2023/10/13 00:24:58;;;;;;;;;;;;;;;6.24;83.80;99410.52;1821;302;185034;-57
2023/10/13 00:27:30;;;;;;;;;;;;;;;6.16;83.53;99407.02;1782;307;115750;-57
2023/10/13 00:32:56;;;;;;;;;;;;;;;6.12;84.57;99411.14;1766;306;115660;-57
2023/10/13 00:35:29;;;;;;;;;;;;;;;6.09;84.63;99411.06;1791;302;115619;-57
2023/10/13 00:38:03;;;;;;;;;;;;;;;6.07;85.00;99415.11;1781;299;184482;-57
2023/10/13 00:45:55;;;;;;;;;;;;;;;6.00;85.16;99413.42;1795;302;115591;-57
2023/10/13 00:48:33;;;;;;;;;;;;;;;5.97;85.50;99405.04;1768;302;185036;-57
2023/10/13 00:51:08;;;;;;;;;;;;;;;6.00;85.95;99394.43;1788;302;115751;-57
2023/10/13 00:53:39;;;;;;;;;;;;;;;5.99;85.77;99390.49;1845;298;115608;-57
2023/10/13 00:56:18;;;;;;;;;;;;;;;5.92;85.46;99392.92;1796;301;198038;-57
2023/10/13 00:58:46;;;;;;;;;;;;;;;5.87;85.47;99394.81;1788;304;115829;-57
2023/10/13 01:01:17;;;;;;;;;;;;;;;5.83;85.51;99399.45;1781;306;184612;-57
2023/10/13 01:03:55;;;;;;;;;;;;;;;5.80;85.81;99400.26;1767;306;115743;-57
2023/10/13 01:06:26;;;;;;;;;;;;;;;5.79;86.21;99394.06;1835;298;187386;-57
2023/10/13 01:11:43;;;;;;;;;;;;;;;5.73;86.11;99387.02;1775;306;115971;-57
2023/10/13 01:14:12;;;;;;;;;;;;;;;5.67;86.13;99393.60;1761;307;186034;-57
2023/10/13 01:16:43;;;;;;;;;;;;;;;5.60;86.28;99393.44;1807;301;116095;-57
2023/10/13 01:19:21;;;;;;;;;;;;;;;5.58;86.72;99398.68;1782;307;184426;-57
2023/10/13 01:21:53;;;;;;;;;;;;;;;5.57;86.97;99403.91;1795;308;115941;-57
2023/10/13 01:24:24;;;;;;;;;;;;;;;5.57;87.11;99409.27;1745;1312;184826;-57
2023/10/13 01:26:54;;;;;;;;;;;;;;;5.56;87.24;99406.88;1796;302;115629;-57
2023/10/13 01:29:28;;;;;;;;;;;;;;;5.54;87.38;99406.75;1772;306;116119;-57
2023/10/13 01:31:57;;;;;;;;;;;;;;;5.49;87.02;99414.36;1810;308;185776;-57
2023/10/13 01:34:25;;;;;;;;;;;;;;;5.43;86.99;99412.29;1774;302;115812;-57
2023/10/13 01:36:54;;;;;;;;;;;;;;;5.36;87.02;99414.06;1778;308;184753;-57
2023/10/13 01:39:28;;;;;;;;;;;;;;;5.29;87.35;99418.45;1787;303;115901;-57
2023/10/13 01:41:57;;;;;;;;;;;;;;;5.25;87.60;99421.48;1801;307;115798;-57
2023/10/13 01:44:28;;;;;;;;;;;;;;;5.22;87.48;99424.67;1796;302;184402;-58
2023/10/13 01:46:59;;;;;;;;;;;;;;;5.15;87.38;99423.31;1793;302;116309;-57
2023/10/13 01:49:27;;;;;;;;;;;;;;;5.07;87.37;99420.64;1793;299;184431;-57
2023/10/13 01:51:55;;;;;;;;;;;;;;;5.00;87.44;99422.92;1795;307;115717;-57
2023/10/13 01:54:24;;;;;;;;;;;;;;;4.96;87.62;99425.61;1803;304;184615;-57
2023/10/13 01:56:52;;;;;;;;;;;;;;;4.94;87.87;99430.16;1763;305;115714;-57
2023/10/13 01:59:22;;;;;;;;;;;;;;;4.94;88.04;99435.70;1782;297;116064;-57
2023/10/13 02:01:51;;;;;;;;;;;;;;;4.96;88.51;99429.06;1828;302;184454;-57
2023/10/13 02:04:21;;;;;;;;;;;;;;;4.96;88.40;99423.70;1762;313;115666;-57
2023/10/13 02:06:52;;;;;;;;;;;;;;;4.91;88.24;99418.68;1801;307;185099;-57
2023/10/13 02:09:26;;;;;;;;;;;;;;;4.84;88.04;99421.83;1762;307;115756;-57
2023/10/13 02:11:54;;;;;;;;;;;;;;;4.75;87.93;99418.48;1846;301;115644;-57
2023/10/13 02:14:25;;;;;;;;;;;;;;;4.73;88.53;99411.63;1778;298;184616;-57
2023/10/13 02:17:12;;;;;;;;;;;;;;;4.75;89.01;99410.36;1805;302;115609;-57
2023/10/13 02:19:44;;;;;;;;;;;;;;;4.75;88.91;99408.66;1787;298;185813;-57
2023/10/13 02:22:29;;;;;;;;;;;;;;;4.74;89.17;99409.38;1768;302;116264;-57
2023/10/13 02:25:05;;;;;;;;;;;;;;;4.74;89.24;99413.84;1814;301;185030;-57
2023/10/13 02:27:43;;;;;;;;;;;;;;;4.75;89.42;99416.73;1851;287;115607;-57
2023/10/13 02:30:13;;;;;;;;;;;;;;;4.77;89.54;99422.91;1806;298;185868;-56
2023/10/13 02:32:43;;;;;;;;;;;;;;;4.77;89.73;99428.92;1765;307;116327;-57
2023/10/13 02:35:17;;;;;;;;;;;;;;;4.79;89.80;99421.98;1815;303;115735;-57
2023/10/13 02:37:54;;;;;;;;;;;;;;;4.80;90.05;99421.94;1798;303;184512;-57
2023/10/13 02:40:23;;;;;;;;;;;;;;;4.83;90.29;99414.11;1832;302;115949;-57
2023/10/13 02:42:52;;;;;;;;;;;;;;;4.87;90.68;99417.77;1816;304;184732;-57
2023/10/13 02:45:25;;;;;;;;;;;;;;;4.87;90.55;99416.55;1784;307;115600;-57
2023/10/13 02:48:10;;;;;;;;;;;;;;;4.85;90.37;99426.98;1806;303;115639;-56
2023/10/13 02:50:42;;;;;;;;;;;;;;;4.85;90.38;99423.70;1792;308;116302;-56
2023/10/13 02:53:14;;;;;;;;;;;;;;;4.84;90.49;99417.70;1795;306;116753;-57
2023/10/13 02:56:05;;;;;;;;;;;;;;;4.82;90.31;99421.20;1815;307;184578;-57
2023/10/13 02:58:43;;;;;;;;;;;;;;;4.81;90.68;99421.23;1812;307;115611;-56
2023/10/13 03:01:18;;;;;;;;;;;;;;;4.84;90.96;99425.27;1809;304;184695;-57
2023/10/13 03:03:51;;;;;;;;;;;;;;;4.83;90.70;99416.52;1773;306;115917;-57
2023/10/13 03:06:23;;;;;;;;;;;;;;;4.79;90.71;99418.53;1798;306;185418;-57
2023/10/13 03:08:51;;;;;;;;;;;;;;;4.77;90.71;99424.10;1771;309;115678;-57
2023/10/13 03:11:22;;;;;;;;;;;;;;;4.74;90.67;99430.92;1781;303;116034;-56
2023/10/13 03:13:52;;;;;;;;;;;;;;;4.69;90.64;99433.80;1782;307;184495;-57
2023/10/13 03:16:20;;;;;;;;;;;;;;;4.67;90.67;99430.23;1822;307;116639;-57
2023/10/13 03:18:55;;;;;;;;;;;;;;;4.65;90.87;99432.71;1809;303;184764;-56
2023/10/13 03:21:30;;;;;;;;;;;;;;;4.61;90.98;99436.08;1762;309;116079;-57
2023/10/13 03:24:06;;;;;;;;;;;;;;;4.59;90.94;99442.33;1808;307;116276;-57
2023/10/13 03:26:36;;;;;;;;;;;;;;;4.57;90.91;99445.52;1776;303;184230;-56
2023/10/13 03:29:08;;;;;;;;;;;;;;;4.55;91.01;99443.84;1753;305;115738;-57
2023/10/13 03:31:37;;;;;;;;;;;;;;;4.54;91.17;99446.98;1768;301;185614;-57
2023/10/13 03:34:09;;;;;;;;;;;;;;;4.52;91.17;99443.77;1771;309;115779;-57
2023/10/13 03:36:56;;;;;;;;;;;;;;;4.52;91.31;99443.23;1767;305;184769;-57
2023/10/13 03:39:29;;;;;;;;;;;;;;;4.51;91.43;99443.95;1777;303;115599;-56
2023/10/13 03:41:58;;;;;;;;;;;;;;;4.49;91.41;99441.77;1810;303;115733;-58
2023/10/13 03:44:30;;;;;;;;;;;;;;;4.47;91.53;99439.74;1763;304;184758;-56
2023/10/13 03:47:17;;;;;;;;;;;;;;;4.46;91.74;99434.09;1830;303;115629;-56
2023/10/13 03:49:51;;;;;;;;;;;;;;;4.46;91.77;99428.58;1784;307;185759;-56
2023/10/13 03:52:22;;;;;;;;;;;;;;;4.46;91.99;99424.62;1796;307;115615;-56
2023/10/13 03:54:51;;;;;;;;;;;;;;;4.46;92.13;99428.23;1790;303;184930;-56
2023/10/13 03:57:21;;;;;;;;;;;;;;;4.44;92.11;99431.73;1754;307;116238;-56
2023/10/13 03:59:50;;;;;;;;;;;;;;;4.44;92.30;99428.97;1770;1311;115901;-56
2023/10/13 04:02:21;;;;;;;;;;;;;;;4.43;92.43;99433.66;1763;305;184605;-56
2023/10/13 04:04:55;;;;;;;;;;;;;;;4.43;92.50;99429.16;1783;303;116087;-56
2023/10/13 04:15:37;;;;;;;;;;;;;;;4.56;93.56;99419.85;1770;303;116142;-59
2023/10/13 04:18:18;;;;;;;;;;;;;;;4.50;93.23;99415.52;1748;307;115755;-59
2023/10/13 04:21:03;;;;;;;;;;;;;;;4.49;93.56;99409.17;1761;299;115952;-59
2023/10/13 04:24:08;;;;;;;;;;;;;;;4.54;93.79;99402.49;1798;303;115754;-59
2023/10/13 04:26:35;;;;;;;;;;;;;;;4.58;93.85;99399.11;1771;303;184434;-59
2023/10/13 04:29:10;;;;;;;;;;;;;;;4.65;94.00;99402.70;1780;299;115610;-59
2023/10/13 04:31:55;;;;;;;;;;;;;;;4.68;94.05;99407.44;1785;305;184802;-59
2023/10/13 04:34:34;;;;;;;;;;;;;;;4.71;94.13;99409.10;1747;1298;116078;-59
2023/10/13 04:37:28;;;;;;;;;;;;;;;4.75;94.24;99412.28;1743;308;185037;-59
2023/10/13 04:39:59;;;;;;;;;;;;;;;4.78;94.40;99417.36;1789;307;115818;-58
2023/10/13 04:50:53;;;;;;;;;;;;;;;4.81;94.62;99414.31;1787;296;115916;-59
2023/10/13 05:49:09;;;;;;;;;;;;;;;5.60;96.48;99410.20;1784;303;185641;-58
2023/10/13 06:30:17;;;;;;;;;;;;;;;7.45;98.19;99419.39;1794;306;115724;-57
2023/10/13 06:32:46;;;;;;;;;;;;;;;7.76;98.17;99421.99;1769;307;115660;-57
2023/10/13 06:35:23;;;;;;;;;;;;;;;8.03;97.95;99422.26;1848;301;115728;-57
2023/10/13 06:37:52;;;;;;;;;;;;;;;8.25;97.81;99420.30;1817;304;184691;-57
2023/10/13 06:43:16;;;;;;;;;;;;;;;8.72;97.94;99418.11;1785;303;184792;-58
2023/10/13 06:45:56;;;;;;;;;;;;;;;8.96;97.74;99413.38;1812;305;115603;-57
2023/10/13 06:48:26;;;;;;;;;;;;;;;9.22;97.86;99414.61;1836;302;185157;-58
2023/10/13 06:50:55;;;;;;;;;;;;;;;9.47;98.12;99410.15;1771;303;118536;-58
2023/10/13 06:53:24;;;;;;;;;;;;;;;9.73;98.06;99403.02;1800;307;116528;-58
2023/10/13 06:55:58;;;;;;;;;;;;;;;9.88;97.98;99398.25;1819;303;185955;-58
2023/10/13 06:58:29;;;;;;;;;;;;;;;9.96;97.57;99409.51;1821;303;115610;-57
2023/10/13 07:00:59;;;;;;;;;;;;;;;10.00;97.51;99407.88;1812;307;198352;-58
2023/10/13 07:03:27;;;;;;;;;;;;;;;10.02;97.11;99409.02;1764;310;115618;-58
2023/10/13 07:05:58;;;;;;;;;;;;;;;10.03;97.04;99407.72;1817;306;116100;-58
2023/10/13 07:08:31;;;;;;;;;;;;;;;10.13;97.25;99405.70;1790;307;184702;-58
2023/10/13 07:11:02;;;;;;;;;;;;;;;10.30;97.30;99406.92;1773;303;115852;-57
2023/10/13 07:13:36;;;;;;;;;;;;;;;10.57;97.53;99408.51;1796;299;184899;-57
2023/10/13 07:16:12;;;;;;;;;;;;;;;10.81;97.45;99398.52;1779;307;115599;-57
2023/10/13 07:19:04;;;;;;;;;;;;;;;10.96;97.04;99397.55;1800;304;186540;-58
2023/10/13 07:21:33;;;;;;;;;;;;;;;11.08;96.70;99395.17;1792;308;116058;-57
2023/10/13 07:24:11;;;;;;;;;;;;;;;11.14;96.34;99393.33;1860;306;115844;-57
2023/10/13 07:26:42;;;;;;;;;;;;;;;11.22;96.16;99397.17;1774;306;185875;-56
2023/10/13 07:29:12;;;;;;;;;;;;;;;11.35;96.29;99398.58;1809;306;115791;-57
2023/10/13 07:31:44;;;;;;;;;;;;;;;11.53;96.16;99401.94;1809;302;185095;-58
2023/10/13 07:34:31;;;;;;;;;;;;;;;11.74;96.02;99403.86;1760;306;115779;-58
2023/10/13 07:37:00;;;;;;;;;;;;;;;11.97;95.82;99408.01;1795;302;184906;-57
2023/10/13 07:39:33;;;;;;;;;;;;;;;12.22;95.58;99411.79;1770;308;115598;-57
2023/10/13 07:42:06;;;;;;;;;;;;;;;12.50;95.55;99405.04;1778;303;115592;-58
2023/10/13 07:44:45;;;;;;;;;;;;;;;12.77;95.46;99395.55;1762;304;184771;-57
2023/10/13 07:47:18;;;;;;;;;;;;;;;13.10;94.81;99390.84;1811;302;116311;-57
2023/10/13 07:49:52;;;;;;;;;;;;;;;13.52;94.59;99384.39;1807;1313;185534;-57
2023/10/13 07:54:59;;;;;;;;;;;;;;;14.62;94.39;99384.20;1774;306;185177;-57
2023/10/13 07:57:31;;;;;;;;;;;;;;;15.25;93.86;99377.34;1794;1310;115601;-58
2023/10/13 08:00:11;;;;;;;;;;;;;;;15.77;92.79;99379.46;1823;303;115632;-57
2023/10/13 08:02:49;;;;;;;;;;;;;;;16.02;91.43;99379.61;1765;299;184606;-57
